createdAt,value
2017-11-25T00:00:27.373Z,15.32
2017-11-25T00:01:29.849Z,15.50
2017-11-25T00:02:32.308Z,16.35
2017-11-25T00:03:34.788Z,16.55
2017-11-25T00:04:37.253Z,16.37
2017-11-25T00:05:40.502Z,17.42
2017-11-25T00:06:42.974Z,17.15
2017-11-25T00:07:45.462Z,17.35
2017-11-25T00:08:47.944Z,16.73
2017-11-25T00:09:50.413Z,16.98
2017-11-25T00:10:52.876Z,17.08
2017-11-25T00:11:55.336Z,17.65
2017-11-25T00:12:58.687Z,17.17
2017-11-25T00:14:01.157Z,17.27
2017-11-25T00:15:03.654Z,16.92
2017-11-25T00:16:06.181Z,17.42
2017-11-25T00:17:08.688Z,16.85
2017-11-25T00:18:12.766Z,16.77
2017-11-25T00:19:16.001Z,16.35
2017-11-25T00:20:18.483Z,14.77
2017-11-25T00:21:20.952Z,16.12
2017-11-25T00:22:23.457Z,15.93
2017-11-25T00:23:26.008Z,17.75
2017-11-25T00:24:28.497Z,15.07
2017-11-25T00:25:30.989Z,16.92
2017-11-25T00:26:33.462Z,15.32
2017-11-25T00:27:36.827Z,14.38
2017-11-25T00:28:39.285Z,15.30
2017-11-25T00:29:41.764Z,15.80
2017-11-25T00:30:45.030Z,16.27
2017-11-25T00:31:48.242Z,15.57
2017-11-25T00:32:50.947Z,14.65
2017-11-25T00:33:53.411Z,15.65
2017-11-25T00:34:55.885Z,14.40
2017-11-25T00:35:58.440Z,15.07
2017-11-25T00:37:00.948Z,14.95
2017-11-25T00:38:03.400Z,14.05
2017-11-25T00:39:06.656Z,15.70
2017-11-25T00:40:09.161Z,15.25
2017-11-25T00:41:12.484Z,14.60
2017-11-25T00:42:14.969Z,15.32
2017-11-25T00:43:17.424Z,15.15
2017-11-25T00:44:19.931Z,15.50
2017-11-25T00:45:22.424Z,14.35
2017-11-25T00:46:24.981Z,14.50
2017-11-25T00:47:27.461Z,14.57
2017-11-25T00:48:30.683Z,14.40
2017-11-25T00:49:33.245Z,13.90
2017-11-25T00:50:35.750Z,14.80
2017-11-25T00:51:38.997Z,15.35
2017-11-25T00:52:42.307Z,15.20
2017-11-25T00:53:44.788Z,15.05
2017-11-25T00:54:47.284Z,15.30
2017-11-25T00:55:49.883Z,15.70
2017-11-25T00:56:52.478Z,15.65
2017-11-25T00:57:54.955Z,15.60
2017-11-25T00:58:57.519Z,16.23
2017-11-25T01:00:00.891Z,14.98
2017-11-25T01:01:03.388Z,14.87
2017-11-25T01:02:05.897Z,15.25
2017-11-25T01:03:09.122Z,14.10
2017-11-25T01:04:11.602Z,15.90
2017-11-25T01:05:14.226Z,16.70
2017-11-25T01:06:17.275Z,14.25
2017-11-25T01:07:19.778Z,16.52
2017-11-25T01:08:22.321Z,14.55
2017-11-25T01:09:24.814Z,14.30
2017-11-25T01:10:28.041Z,14.18
2017-11-25T01:11:31.280Z,15.15
2017-11-25T01:12:34.428Z,15.25
2017-11-25T01:13:37.652Z,15.60
2017-11-25T01:14:40.126Z,14.25
2017-11-25T01:15:42.644Z,14.95
2017-11-25T01:16:45.126Z,15.07
2017-11-25T01:17:47.615Z,15.40
2017-11-25T01:18:50.123Z,14.63
2017-11-25T01:19:52.582Z,14.87
2017-11-25T01:20:55.212Z,15.43
2017-11-25T01:21:57.712Z,14.00
2017-11-25T01:23:00.170Z,14.48
2017-11-25T01:24:02.636Z,14.52
2017-11-25T01:25:05.863Z,14.50
2017-11-25T01:26:09.129Z,15.32
2017-11-25T01:27:11.643Z,14.68
2017-11-25T01:28:14.880Z,15.40
2017-11-25T01:29:18.112Z,14.00
2017-11-25T01:30:21.440Z,14.68
2017-11-25T01:31:23.904Z,15.98
2017-11-25T01:32:26.400Z,14.68
2017-11-25T01:33:28.873Z,14.82
2017-11-25T01:34:31.371Z,15.82
2017-11-25T01:35:34.613Z,15.07
2017-11-25T01:36:37.835Z,14.75
2017-11-25T01:37:40.308Z,14.85
2017-11-25T01:38:42.772Z,15.38
2017-11-25T01:39:45.269Z,14.98
2017-11-25T01:40:47.745Z,14.65
2017-11-25T01:41:50.968Z,15.10
2017-11-25T01:42:53.498Z,15.20
2017-11-25T01:43:55.963Z,15.50
2017-11-25T01:44:58.484Z,15.07
2017-11-25T01:46:00.955Z,15.57
2017-11-25T01:47:03.457Z,14.77
2017-11-25T01:48:06.876Z,15.00
2017-11-25T01:49:09.343Z,14.87
2017-11-25T01:50:11.832Z,15.35
2017-11-25T01:51:14.291Z,15.50
2017-11-25T01:52:16.879Z,15.25
2017-11-25T01:53:19.397Z,14.60
2017-11-25T01:54:22.723Z,15.63
2017-11-25T01:55:26.091Z,14.85
2017-11-25T01:56:28.571Z,14.95
2017-11-25T01:57:31.151Z,15.30
2017-11-25T01:58:33.613Z,15.18
2017-11-25T01:59:36.083Z,15.68
2017-11-25T02:00:39.312Z,14.60
2017-11-25T02:01:42.599Z,15.63
2017-11-25T02:02:45.054Z,16.08
2017-11-25T02:03:47.528Z,14.60
2017-11-25T02:04:50.004Z,15.00
2017-11-25T02:05:52.476Z,15.95
2017-11-25T02:06:54.950Z,15.65
2017-11-25T02:07:57.404Z,16.17
2017-11-25T02:09:00.639Z,14.93
2017-11-25T02:10:03.115Z,15.10
2017-11-25T02:11:05.596Z,14.45
2017-11-25T02:12:08.818Z,16.10
2017-11-25T02:13:11.292Z,15.63
2017-11-25T02:14:13.750Z,15.38
2017-11-25T02:15:16.240Z,14.75
2017-11-25T02:16:18.740Z,14.87
2017-11-25T02:17:22.068Z,15.27
2017-11-25T02:18:24.564Z,13.90
2017-11-25T02:19:27.048Z,14.20
2017-11-25T02:20:30.270Z,15.65
2017-11-25T02:21:33.539Z,14.52
2017-11-25T02:22:36.001Z,14.93
2017-11-25T02:23:38.468Z,14.48
2017-11-25T02:24:41.723Z,15.45
2017-11-25T02:25:44.214Z,15.00
2017-11-25T02:26:46.692Z,14.60
2017-11-25T02:27:49.220Z,15.38
2017-11-25T02:28:51.744Z,14.68
2017-11-25T02:29:54.240Z,14.85
2017-11-25T02:30:57.480Z,15.25
2017-11-25T02:32:00.136Z,14.50
2017-11-25T02:33:02.638Z,14.95
2017-11-25T02:34:05.958Z,15.05
2017-11-25T02:35:08.445Z,13.85
2017-11-25T02:36:10.911Z,14.87
2017-11-25T02:37:13.471Z,14.93
2017-11-25T02:38:15.987Z,14.85
2017-11-25T02:39:19.221Z,15.52
2017-11-25T02:40:22.459Z,15.85
2017-11-25T02:41:25.687Z,15.40
2017-11-25T02:42:28.164Z,15.80
2017-11-25T02:43:30.650Z,16.33
2017-11-25T02:44:33.910Z,15.60
2017-11-25T02:45:36.373Z,17.00
2017-11-25T02:46:38.845Z,16.65
2017-11-25T02:47:42.069Z,16.80
2017-11-25T02:48:45.327Z,17.10
2017-11-25T02:49:48.579Z,17.08
2017-11-25T02:50:51.899Z,17.40
2017-11-25T02:51:54.383Z,17.65
2017-11-25T02:52:56.869Z,17.55
2017-11-25T02:54:00.127Z,18.10
2017-11-25T02:55:02.607Z,20.02
2017-11-25T02:56:05.095Z,18.42
2017-11-25T02:57:07.552Z,18.20
2017-11-25T02:58:10.030Z,18.87
2017-11-25T02:59:12.496Z,20.08
2017-11-25T03:00:14.963Z,18.77
2017-11-25T03:01:18.221Z,18.12
2017-11-25T03:02:20.713Z,18.23
2017-11-25T03:03:23.199Z,18.55
2017-11-25T03:04:25.669Z,19.40
2017-11-25T03:05:28.932Z,17.85
2017-11-25T03:06:31.436Z,17.85
2017-11-25T03:07:33.921Z,18.50
2017-11-25T03:08:36.415Z,18.75
2017-11-25T03:09:38.942Z,17.30
2017-11-25T03:10:41.405Z,18.10
2017-11-25T03:11:43.912Z,17.70
2017-11-25T03:12:46.368Z,17.83
2017-11-25T03:13:48.868Z,17.65
2017-11-25T03:14:51.333Z,17.42
2017-11-25T03:15:53.883Z,16.90
2017-11-25T03:16:57.159Z,16.60
2017-11-25T03:17:59.624Z,17.37
2017-11-25T03:19:02.188Z,16.73
2017-11-25T03:21:07.430Z,17.27
2017-11-25T03:22:10.672Z,16.52
2017-11-25T03:23:13.895Z,14.98
2017-11-25T03:24:17.125Z,16.90
2017-11-25T03:25:19.617Z,16.10
2017-11-25T03:26:22.113Z,16.33
2017-11-25T03:27:24.573Z,15.43
2017-11-25T03:28:27.079Z,16.25
2017-11-25T03:29:29.557Z,15.45
2017-11-25T03:30:32.036Z,15.80
2017-11-25T03:31:34.488Z,15.32
2017-11-25T03:32:37.062Z,16.70
2017-11-25T03:33:39.712Z,16.55
2017-11-25T03:34:42.171Z,14.82
2017-11-25T03:35:44.678Z,15.50
2017-11-25T03:36:47.151Z,16.52
2017-11-25T03:37:50.406Z,15.45
2017-11-25T03:38:53.640Z,16.17
2017-11-25T03:39:56.904Z,15.85
2017-11-25T03:41:00.291Z,15.60
2017-11-25T03:42:02.758Z,17.42
2017-11-25T03:43:05.999Z,16.25
2017-11-25T03:44:09.219Z,17.30
2017-11-25T03:45:12.452Z,15.40
2017-11-25T03:46:14.944Z,15.23
2017-11-25T03:47:17.457Z,15.63
2017-11-25T03:48:19.926Z,15.32
2017-11-25T03:49:22.436Z,15.55
2017-11-25T03:50:24.943Z,17.62
2017-11-25T03:51:27.404Z,15.23
2017-11-25T03:52:29.863Z,15.27
2017-11-25T03:53:32.324Z,16.08
2017-11-25T03:54:34.808Z,16.08
2017-11-25T03:55:38.067Z,15.98
2017-11-25T03:56:40.553Z,16.05
2017-11-25T03:57:43.004Z,16.12
2017-11-25T03:58:45.467Z,16.30
2017-11-25T03:59:47.939Z,17.00
2017-11-25T04:00:51.209Z,17.52
2017-11-25T04:01:53.684Z,17.65
2017-11-25T04:02:56.143Z,16.40
2017-11-25T04:03:59.372Z,17.75
2017-11-25T04:05:02.682Z,17.25
2017-11-25T04:06:05.171Z,18.27
2017-11-25T04:07:07.643Z,18.45
2017-11-25T04:08:10.127Z,18.52
2017-11-25T04:09:12.592Z,17.33
2017-11-25T04:10:15.061Z,17.70
2017-11-25T04:11:17.772Z,17.35
2017-11-25T04:12:21.030Z,18.85
2017-11-25T04:13:23.554Z,19.02
2017-11-25T04:14:26.788Z,18.90
2017-11-25T04:15:30.059Z,19.45
2017-11-25T04:16:32.581Z,20.00
2017-11-25T04:17:35.072Z,18.45
2017-11-25T04:18:37.549Z,18.75
2017-11-25T04:19:40.021Z,17.87
2017-11-25T04:20:43.261Z,20.15
2017-11-25T04:21:46.537Z,17.30
2017-11-25T04:22:49.011Z,18.58
2017-11-25T04:23:51.498Z,19.08
2017-11-25T04:24:53.959Z,19.15
2017-11-25T04:25:56.463Z,19.67
2017-11-25T04:26:58.973Z,18.87
2017-11-25T04:28:01.444Z,20.00
2017-11-25T04:29:03.950Z,18.45
2017-11-25T04:30:06.404Z,18.90
2017-11-25T04:31:09.655Z,16.12
2017-11-25T04:32:12.901Z,19.50
2017-11-25T04:33:16.160Z,18.27
2017-11-25T04:34:18.644Z,18.12
2017-11-25T04:35:21.114Z,17.85
2017-11-25T04:36:23.890Z,16.52
2017-11-25T04:37:26.367Z,16.70
2017-11-25T04:38:28.854Z,16.58
2017-11-25T04:39:31.369Z,18.12
2017-11-25T04:40:33.843Z,17.48
2017-11-25T04:41:36.355Z,17.90
2017-11-25T04:42:39.590Z,17.33
2017-11-25T04:43:42.864Z,16.65
2017-11-25T04:44:45.332Z,17.73
2017-11-25T04:45:47.807Z,16.55
2017-11-25T04:46:50.272Z,17.17
2017-11-25T04:47:52.768Z,16.02
2017-11-25T04:48:55.243Z,16.60
2017-11-25T04:51:10.237Z,18.05
2017-11-25T04:52:13.472Z,16.80
2017-11-25T04:53:16.702Z,17.10
2017-11-25T04:54:19.164Z,17.35
2017-11-25T04:55:21.664Z,15.52
2017-11-25T04:56:24.920Z,17.02
2017-11-25T04:57:28.161Z,17.55
2017-11-25T04:58:31.463Z,15.43
2017-11-25T04:59:33.924Z,18.02
2017-11-25T05:00:37.175Z,16.02
2017-11-25T05:01:40.414Z,16.37
2017-11-25T05:02:43.639Z,17.87
2017-11-25T05:03:46.135Z,16.10
2017-11-25T05:04:48.585Z,17.10
2017-11-25T05:05:51.080Z,16.65
2017-11-25T05:06:53.581Z,16.50
2017-11-25T05:07:56.041Z,16.50
2017-11-25T05:08:58.532Z,16.65
2017-11-25T05:10:01.013Z,17.62
2017-11-25T05:11:03.507Z,17.30
2017-11-25T05:12:05.982Z,18.17
2017-11-25T05:13:09.228Z,18.27
2017-11-25T05:14:11.684Z,17.90
2017-11-25T05:15:14.153Z,17.45
2017-11-25T05:16:16.631Z,18.33
2017-11-25T05:17:19.079Z,17.42
2017-11-25T05:18:21.593Z,18.35
2017-11-25T05:19:24.060Z,19.10
2017-11-25T05:20:27.381Z,17.42
2017-11-25T05:21:29.869Z,17.73
2017-11-25T05:22:32.325Z,17.40
2017-11-25T05:23:34.825Z,18.75
2017-11-25T05:24:37.288Z,18.62
2017-11-25T05:25:39.850Z,18.40
2017-11-25T05:26:43.089Z,17.40
2017-11-25T05:27:46.341Z,17.58
2017-11-25T05:28:48.864Z,18.85
2017-11-25T05:29:51.389Z,18.25
2017-11-25T05:30:53.921Z,18.37
2017-11-25T05:31:56.405Z,18.80
2017-11-25T05:32:58.958Z,18.40
2017-11-25T05:34:02.255Z,17.52
2017-11-25T05:35:04.804Z,18.77
2017-11-25T05:36:07.408Z,17.83
2017-11-25T05:37:09.889Z,18.35
2017-11-25T05:38:12.373Z,18.90
2017-11-25T05:39:14.897Z,20.25
2017-11-25T05:40:18.864Z,18.73
2017-11-25T05:41:21.348Z,19.08
2017-11-25T05:42:23.822Z,18.17
2017-11-25T05:43:26.286Z,17.52
2017-11-25T05:44:28.924Z,17.92
2017-11-25T05:45:31.432Z,17.08
2017-11-25T05:46:34.909Z,18.25
2017-11-25T05:47:37.391Z,18.95
2017-11-25T05:48:40.616Z,18.23
2017-11-25T05:49:43.871Z,18.73
2017-11-25T05:50:47.108Z,17.25
2017-11-25T05:51:50.341Z,17.58
2017-11-25T05:52:53.611Z,17.45
2017-11-25T05:53:56.836Z,16.45
2017-11-25T05:55:00.093Z,18.05
2017-11-25T05:56:02.644Z,16.60
2017-11-25T05:57:05.130Z,15.90
2017-11-25T05:58:08.497Z,14.45
2017-11-25T05:59:10.979Z,13.50
2017-11-25T06:00:14.281Z,13.75
2017-11-25T06:01:17.002Z,15.23
2017-11-25T06:02:19.471Z,15.00
2017-11-25T06:03:21.923Z,13.80
2017-11-25T06:04:25.161Z,13.98
2017-11-25T06:05:28.399Z,13.60
2017-11-25T06:06:31.668Z,14.07
2017-11-25T06:07:34.194Z,13.25
2017-11-25T06:08:37.588Z,15.13
2017-11-25T06:09:40.229Z,12.57
2017-11-25T06:10:43.515Z,13.52
2017-11-25T06:11:46.062Z,12.25
2017-11-25T06:12:48.516Z,12.82
2017-11-25T06:13:50.986Z,11.18
2017-11-25T06:14:53.444Z,12.35
2017-11-25T06:15:55.913Z,12.23
2017-11-25T06:16:59.162Z,12.23
2017-11-25T06:18:02.393Z,11.12
2017-11-25T06:19:04.895Z,11.95
2017-11-25T06:20:07.412Z,10.40
2017-11-25T06:21:09.859Z,10.80
2017-11-25T06:22:12.325Z,10.57
2017-11-25T06:23:14.803Z,10.90
2017-11-25T06:24:17.296Z,10.82
2017-11-25T06:25:19.764Z,10.60
2017-11-25T06:26:23.011Z,10.35
2017-11-25T06:27:25.464Z,9.98
2017-11-25T06:28:27.960Z,10.18
2017-11-25T06:29:30.431Z,9.80
2017-11-25T06:30:32.920Z,8.60
2017-11-25T06:31:36.168Z,9.95
2017-11-25T06:32:39.387Z,10.02
2017-11-25T06:33:41.924Z,9.40
2017-11-25T06:34:45.150Z,10.65
2017-11-25T06:35:48.045Z,10.68
2017-11-25T06:36:50.524Z,10.70
2017-11-25T06:37:53.783Z,9.93
2017-11-25T06:38:57.004Z,10.45
2017-11-25T06:39:59.459Z,10.43
2017-11-25T06:41:01.929Z,9.63
2017-11-25T06:42:04.432Z,10.63
2017-11-25T06:43:06.912Z,10.73
2017-11-25T06:44:10.142Z,10.05
2017-11-25T06:45:12.699Z,9.68
2017-11-25T06:46:15.181Z,8.45
2017-11-25T06:47:19.140Z,10.15
2017-11-25T06:48:22.012Z,9.13
2017-11-25T06:49:24.476Z,9.30
2017-11-25T06:50:26.950Z,9.15
2017-11-25T06:51:30.201Z,9.93
2017-11-25T06:52:33.274Z,8.50
2017-11-25T06:53:35.747Z,7.97
2017-11-25T06:54:38.215Z,8.30
2017-11-25T06:55:40.671Z,7.80
2017-11-25T06:56:43.164Z,8.95
2017-11-25T06:57:45.677Z,9.07
2017-11-25T06:58:48.133Z,8.57
2017-11-25T06:59:50.612Z,8.38
2017-11-25T07:00:53.841Z,8.25
2017-11-25T07:01:57.183Z,8.45
2017-11-25T07:02:59.725Z,8.93
2017-11-25T07:04:02.800Z,8.70
2017-11-25T07:05:05.304Z,7.25
2017-11-25T07:06:07.830Z,8.75
2017-11-25T07:07:10.344Z,8.98
2017-11-25T07:08:12.806Z,8.40
2017-11-25T07:09:15.298Z,9.60
2017-11-25T07:10:17.763Z,7.75
2017-11-25T07:11:20.219Z,7.97
2017-11-25T07:12:23.470Z,7.65
2017-11-25T07:13:25.977Z,7.68
2017-11-25T07:14:28.449Z,7.07
2017-11-25T07:15:31.011Z,8.52
2017-11-25T07:16:33.505Z,7.07
2017-11-25T07:17:35.989Z,7.93
2017-11-25T07:18:38.479Z,8.25
2017-11-25T07:19:40.935Z,7.28
2017-11-25T07:20:43.560Z,7.87
2017-11-25T07:21:46.084Z,8.10
2017-11-25T07:22:48.560Z,7.55
2017-11-25T07:23:51.044Z,7.20
2017-11-25T07:24:54.281Z,7.80
2017-11-25T07:25:56.844Z,7.78
2017-11-25T07:26:59.313Z,7.90
2017-11-25T07:28:02.456Z,7.45
2017-11-25T07:29:04.975Z,7.65
2017-11-25T07:30:07.476Z,8.63
2017-11-25T07:31:09.971Z,7.12
2017-11-25T07:32:13.204Z,7.80
2017-11-25T07:33:16.444Z,8.32
2017-11-25T07:34:19.660Z,6.75
2017-11-25T07:35:22.192Z,7.90
2017-11-25T07:36:24.657Z,6.97
2017-11-25T07:37:27.130Z,7.50
2017-11-25T07:38:29.617Z,7.40
2017-11-25T07:39:32.088Z,7.95
2017-11-25T07:41:43.657Z,7.80
2017-11-25T07:42:46.161Z,7.40
2017-11-25T07:43:48.626Z,7.43
2017-11-25T07:44:51.087Z,6.45
2017-11-25T07:45:54.394Z,6.82
2017-11-25T07:46:56.927Z,6.30
2017-11-25T07:47:59.399Z,7.18
2017-11-25T07:49:01.873Z,7.03
2017-11-25T07:50:05.152Z,6.75
2017-11-25T07:51:08.386Z,6.55
2017-11-25T07:52:11.623Z,6.18
2017-11-25T07:53:14.080Z,6.20
2017-11-25T07:54:16.555Z,6.45
2017-11-25T07:55:19.029Z,6.10
2017-11-25T07:56:21.483Z,6.93
2017-11-25T07:57:23.948Z,6.07
2017-11-25T07:58:27.200Z,5.97
2017-11-25T07:59:30.456Z,6.30
2017-11-25T08:00:32.979Z,6.82
2017-11-25T08:01:35.439Z,6.40
2017-11-25T08:02:38.031Z,5.70
2017-11-25T08:03:41.261Z,5.43
2017-11-25T08:04:44.898Z,5.60
2017-11-25T08:05:47.404Z,5.10
2017-11-25T08:06:49.932Z,5.43
2017-11-25T08:07:52.379Z,5.55
2017-11-25T08:08:55.621Z,5.22
2017-11-25T08:09:58.084Z,4.85
2017-11-25T08:11:01.319Z,5.10
2017-11-25T08:12:03.797Z,4.37
2017-11-25T08:13:06.281Z,4.85
2017-11-25T08:14:08.745Z,4.90
2017-11-25T08:15:12.747Z,4.95
2017-11-25T08:16:15.768Z,4.80
2017-11-25T08:17:19.052Z,4.90
2017-11-25T08:18:21.553Z,4.70
2017-11-25T08:19:24.035Z,4.87
2017-11-25T08:20:26.599Z,4.10
2017-11-25T08:21:29.820Z,4.30
2017-11-25T08:22:32.321Z,4.25
2017-11-25T08:23:34.778Z,3.83
2017-11-25T08:24:38.011Z,3.85
2017-11-25T08:25:41.240Z,4.20
2017-11-25T08:26:43.734Z,4.32
2017-11-25T08:27:46.219Z,3.97
2017-11-25T08:28:49.475Z,3.92
2017-11-25T08:29:52.020Z,4.32
2017-11-25T08:30:54.545Z,3.75
2017-11-25T08:31:57.049Z,4.78
2017-11-25T08:32:59.508Z,3.33
2017-11-25T08:34:01.981Z,3.65
2017-11-25T08:35:05.231Z,3.80
2017-11-25T08:36:08.452Z,3.92
2017-11-25T08:37:10.904Z,3.70
2017-11-25T08:38:13.438Z,3.80
2017-11-25T08:39:16.007Z,3.55
2017-11-25T08:40:18.468Z,4.10
2017-11-25T08:41:21.687Z,3.80
2017-11-25T08:42:24.170Z,4.05
2017-11-25T08:43:26.676Z,3.65
2017-11-25T08:44:29.521Z,3.60
2017-11-25T08:45:32.044Z,3.00
2017-11-25T08:46:34.519Z,3.47
2017-11-25T08:47:36.972Z,3.65
2017-11-25T08:48:40.200Z,3.30
2017-11-25T08:49:43.466Z,3.25
2017-11-25T08:50:46.412Z,2.92
2017-11-25T08:51:48.909Z,3.22
2017-11-25T08:52:52.204Z,3.03
2017-11-25T08:53:54.695Z,3.60
2017-11-25T08:54:57.924Z,3.40
2017-11-25T08:56:01.189Z,3.10
2017-11-25T08:57:03.704Z,3.33
2017-11-25T08:58:06.915Z,3.78
2017-11-25T08:59:09.384Z,3.87
2017-11-25T09:00:11.879Z,3.60
2017-11-25T09:01:15.122Z,3.80
2017-11-25T09:02:18.364Z,3.58
2017-11-25T09:03:21.627Z,4.50
2017-11-25T09:04:24.164Z,4.40
2017-11-25T09:05:26.876Z,4.00
2017-11-25T09:06:30.136Z,3.80
2017-11-25T09:07:32.611Z,3.87
2017-11-25T09:08:35.075Z,3.80
2017-11-25T09:09:37.531Z,4.05
2017-11-25T09:10:39.998Z,3.75
2017-11-25T09:11:42.476Z,4.50
2017-11-25T09:12:44.943Z,4.12
2017-11-25T09:13:47.444Z,3.90
2017-11-25T09:14:49.909Z,3.45
2017-11-25T09:15:53.158Z,3.78
2017-11-25T09:16:56.379Z,3.80
2017-11-25T09:17:58.835Z,4.00
2017-11-25T09:19:02.071Z,4.00
2017-11-25T09:20:05.329Z,4.00
2017-11-25T09:21:07.820Z,3.92
2017-11-25T09:22:11.049Z,4.05
2017-11-25T09:23:13.511Z,3.80
2017-11-25T09:24:15.975Z,4.03
2017-11-25T09:25:18.446Z,3.45
2017-11-25T09:26:21.694Z,4.15
2017-11-25T09:27:24.917Z,3.65
2017-11-25T09:28:28.148Z,3.50
2017-11-25T09:29:30.635Z,4.10
2017-11-25T09:30:33.091Z,3.83
2017-11-25T09:31:35.540Z,3.72
2017-11-25T09:32:38.097Z,3.28
2017-11-25T09:33:40.567Z,3.50
2017-11-25T09:34:43.056Z,3.30
2017-11-25T09:35:45.524Z,3.60
2017-11-25T09:36:47.977Z,3.58
2017-11-25T09:37:51.228Z,3.70
2017-11-25T09:38:53.699Z,4.00
2017-11-25T09:39:56.231Z,3.62
2017-11-25T09:40:58.703Z,3.55
2017-11-25T09:42:01.180Z,3.30
2017-11-25T09:43:03.645Z,3.65
2017-11-25T09:44:06.920Z,3.80
2017-11-25T09:45:09.381Z,3.92
2017-11-25T09:46:11.875Z,3.62
2017-11-25T09:47:14.375Z,3.35
2017-11-25T09:48:16.865Z,3.42
2017-11-25T09:49:19.317Z,3.87
2017-11-25T09:50:21.779Z,3.17
2017-11-25T09:51:24.261Z,3.45
2017-11-25T09:52:27.490Z,4.00
2017-11-25T09:53:30.767Z,3.75
2017-11-25T09:54:33.251Z,3.80
2017-11-25T09:55:36.472Z,4.37
2017-11-25T09:56:38.959Z,4.55
2017-11-25T09:57:41.456Z,4.60
2017-11-25T09:58:44.853Z,4.60
2017-11-25T09:59:47.319Z,4.55
2017-11-25T10:00:50.573Z,4.75
2017-11-25T10:01:53.805Z,4.78
2017-11-25T10:02:57.108Z,5.78
2017-11-25T10:03:59.603Z,5.62
2017-11-25T10:05:02.082Z,6.47
2017-11-25T10:06:04.552Z,5.25
2017-11-25T10:07:07.126Z,4.87
2017-11-25T10:08:09.585Z,5.57
2017-11-25T10:09:12.823Z,5.70
2017-11-25T10:10:16.075Z,4.87
2017-11-25T10:11:19.311Z,5.25
2017-11-25T10:12:22.905Z,4.97
2017-11-25T10:13:25.373Z,4.70
2017-11-25T10:14:27.836Z,4.90
2017-11-25T10:15:30.323Z,4.90
2017-11-25T10:16:33.545Z,4.75
2017-11-25T10:17:36.030Z,4.32
2017-11-25T10:18:38.541Z,4.68
2017-11-25T10:19:41.014Z,4.22
2017-11-25T10:20:43.484Z,4.62
2017-11-25T10:21:45.931Z,4.20
2017-11-25T10:22:48.416Z,4.95
2017-11-25T10:23:51.663Z,5.47
2017-11-25T10:24:54.887Z,4.78
2017-11-25T10:25:57.353Z,4.75
2017-11-25T10:26:59.828Z,5.30
2017-11-25T10:28:02.317Z,5.43
2017-11-25T10:29:04.788Z,4.70
2017-11-25T10:30:07.438Z,5.07
2017-11-25T10:31:10.664Z,5.07
2017-11-25T10:32:13.935Z,5.18
2017-11-25T10:33:16.523Z,5.40
2017-11-25T10:34:18.990Z,5.20
2017-11-25T10:35:21.436Z,6.07
2017-11-25T10:36:23.904Z,5.18
2017-11-25T10:37:26.394Z,5.60
2017-11-25T10:38:30.114Z,5.00
2017-11-25T10:39:32.586Z,4.75
2017-11-25T10:40:35.056Z,4.68
2017-11-25T10:41:38.304Z,5.00
2017-11-25T10:42:40.829Z,4.97
2017-11-25T10:43:43.305Z,5.10
2017-11-25T10:44:45.852Z,5.55
2017-11-25T10:45:48.328Z,5.40
2017-11-25T10:46:50.866Z,5.20
2017-11-25T10:47:53.366Z,5.47
2017-11-25T10:48:55.860Z,5.20
2017-11-25T10:49:58.337Z,4.28
2017-11-25T10:51:00.848Z,4.57
2017-11-25T10:52:03.311Z,4.43
2017-11-25T10:53:05.781Z,4.60
2017-11-25T10:54:08.244Z,4.18
2017-11-25T10:55:10.699Z,4.07
2017-11-25T10:56:13.218Z,4.78
2017-11-25T10:57:16.473Z,4.57
2017-11-25T10:58:18.931Z,4.68
2017-11-25T10:59:21.433Z,5.10
2017-11-25T11:00:24.037Z,5.62
2017-11-25T11:01:26.542Z,5.57
2017-11-25T11:02:29.140Z,5.72
2017-11-25T11:03:31.616Z,6.18
2017-11-25T11:04:34.080Z,5.97
2017-11-25T11:05:36.527Z,6.93
2017-11-25T11:06:39.052Z,5.37
2017-11-25T11:07:41.555Z,6.30
2017-11-25T11:08:44.355Z,6.50
2017-11-25T11:09:46.850Z,6.90
2017-11-25T11:10:49.335Z,5.95
2017-11-25T11:11:51.866Z,6.00
2017-11-25T11:12:54.321Z,5.43
2017-11-25T11:13:56.824Z,5.78
2017-11-25T11:14:59.394Z,5.97
2017-11-25T11:16:02.699Z,5.55
2017-11-25T11:17:05.178Z,5.85
2017-11-25T11:18:07.712Z,5.78
2017-11-25T11:19:10.174Z,5.55
2017-11-25T11:20:12.628Z,4.87
2017-11-25T11:21:15.107Z,5.68
2017-11-25T11:22:17.600Z,4.80
2017-11-25T11:23:20.164Z,4.97
2017-11-25T11:24:22.694Z,5.00
2017-11-25T11:25:25.266Z,5.40
2017-11-25T11:26:27.791Z,4.65
2017-11-25T11:27:30.242Z,5.20
2017-11-25T11:28:33.455Z,4.68
2017-11-25T11:29:35.941Z,4.47
2017-11-25T11:30:38.412Z,4.03
2017-11-25T11:31:40.908Z,4.25
2017-11-25T11:32:43.425Z,3.90
2017-11-25T11:33:45.892Z,4.43
2017-11-25T11:34:48.410Z,3.60
2017-11-25T11:35:50.885Z,3.60
2017-11-25T11:36:53.343Z,3.47
2017-11-25T11:37:55.839Z,3.62
2017-11-25T11:38:58.369Z,3.83
2017-11-25T11:40:00.830Z,3.85
2017-11-25T11:41:03.285Z,4.07
2017-11-25T11:42:06.515Z,3.70
2017-11-25T11:43:08.993Z,3.65
2017-11-25T11:44:11.467Z,3.92
2017-11-25T11:45:13.919Z,2.80
2017-11-25T11:46:17.160Z,2.90
2017-11-25T11:47:19.655Z,3.42
2017-11-25T11:48:22.122Z,3.17
2017-11-25T11:49:24.576Z,2.50
2017-11-25T11:50:27.061Z,2.55
2017-11-25T11:51:29.823Z,3.20
2017-11-25T11:52:32.318Z,3.03
2017-11-25T11:53:34.764Z,2.92
2017-11-25T11:54:37.216Z,3.10
2017-11-25T11:55:39.840Z,2.50
2017-11-25T11:56:42.341Z,2.80
2017-11-25T11:57:44.819Z,1.95
2017-11-25T11:58:47.302Z,2.10
2017-11-25T11:59:49.749Z,1.83
2017-11-25T12:00:52.208Z,1.77
2017-11-25T12:01:55.456Z,1.15
2017-11-25T12:02:57.918Z,1.40
2017-11-25T12:04:00.435Z,1.15
2017-11-25T12:05:02.973Z,1.40
2017-11-25T12:06:05.515Z,1.30
2017-11-25T12:07:07.988Z,1.50
2017-11-25T12:08:10.592Z,1.85
2017-11-25T12:09:14.262Z,1.77
2017-11-25T12:10:17.475Z,1.62
2017-11-25T12:11:19.951Z,1.50
2017-11-25T12:12:22.874Z,1.83
2017-11-25T12:13:25.328Z,1.95
2017-11-25T12:14:28.727Z,1.60
2017-11-25T12:15:31.960Z,1.70
2017-11-25T12:16:35.263Z,2.00
2017-11-25T12:17:37.759Z,2.20
2017-11-25T12:18:40.238Z,1.70
2017-11-25T12:19:42.722Z,1.95
2017-11-25T12:20:45.187Z,2.00
2017-11-25T12:21:47.641Z,2.03
2017-11-25T12:22:50.900Z,2.30
2017-11-25T12:23:53.373Z,2.25
2017-11-25T12:24:55.851Z,2.20
2017-11-25T12:25:58.402Z,1.50
2017-11-25T12:27:01.003Z,1.92
2017-11-25T12:28:03.457Z,1.80
2017-11-25T12:29:05.940Z,1.90
2017-11-25T12:30:09.156Z,1.83
2017-11-25T12:31:11.671Z,2.00
2017-11-25T12:32:14.244Z,1.37
2017-11-25T12:33:16.760Z,1.42
2017-11-25T12:34:19.228Z,1.60
2017-11-25T12:35:21.684Z,2.22
2017-11-25T12:36:24.927Z,1.70
2017-11-25T12:37:27.483Z,1.70
2017-11-25T12:38:29.936Z,1.70
2017-11-25T12:39:33.175Z,1.73
2017-11-25T12:40:37.538Z,1.90
2017-11-25T12:41:39.992Z,2.22
2017-11-25T12:42:42.854Z,2.00
2017-11-25T12:43:46.090Z,2.00
2017-11-25T12:44:48.560Z,2.05
2017-11-25T12:45:51.040Z,1.40
2017-11-25T12:46:54.313Z,1.60
2017-11-25T12:47:56.839Z,2.30
2017-11-25T12:48:59.287Z,2.17
2017-11-25T12:50:01.753Z,2.28
2017-11-25T12:51:04.360Z,1.98
2017-11-25T12:52:08.178Z,1.77
2017-11-25T12:53:10.686Z,1.48
2017-11-25T12:54:13.992Z,1.60
2017-11-25T12:55:16.459Z,1.45
2017-11-25T12:56:18.903Z,1.50
2017-11-25T12:57:21.367Z,1.67
2017-11-25T12:58:23.860Z,1.60
2017-11-25T12:59:26.312Z,2.00
2017-11-25T13:00:28.777Z,1.55
2017-11-25T13:01:32.011Z,1.70
2017-11-25T13:02:34.480Z,1.50
2017-11-25T13:03:36.971Z,1.35
2017-11-25T13:04:39.559Z,1.73
2017-11-25T13:05:42.041Z,1.50
2017-11-25T13:06:44.550Z,1.40
2017-11-25T13:07:47.044Z,1.20
2017-11-25T13:08:49.527Z,1.15
2017-11-25T13:09:51.988Z,1.40
2017-11-25T13:10:54.450Z,1.35
2017-11-25T13:11:56.945Z,1.20
2017-11-25T13:12:59.415Z,1.20
2017-11-25T13:14:01.924Z,1.55
2017-11-25T13:15:05.172Z,1.40
2017-11-25T13:16:07.667Z,1.30
2017-11-25T13:17:11.245Z,1.10
2017-11-25T13:18:13.705Z,1.15
2017-11-25T13:19:16.209Z,1.10
2017-11-25T13:20:18.669Z,1.10
2017-11-25T13:21:21.137Z,1.05
2017-11-25T13:22:23.621Z,1.37
2017-11-25T13:23:26.087Z,1.42
2017-11-25T13:24:28.598Z,1.40
2017-11-25T13:25:31.867Z,1.12
2017-11-25T13:26:34.721Z,1.20
2017-11-25T13:27:38.024Z,1.50
2017-11-25T13:28:41.254Z,1.58
2017-11-25T13:29:43.701Z,1.48
2017-11-25T13:30:47.005Z,1.40
2017-11-25T13:31:49.468Z,1.20
2017-11-25T13:32:51.912Z,1.30
2017-11-25T13:33:56.086Z,1.30
2017-11-25T13:34:58.548Z,1.00
2017-11-25T13:36:01.064Z,1.10
2017-11-25T13:37:03.516Z,1.10
2017-11-25T13:38:06.816Z,0.90
2017-11-25T13:39:09.281Z,1.02
2017-11-25T13:40:12.518Z,1.15
2017-11-25T13:41:15.740Z,1.10
2017-11-25T13:42:18.189Z,1.50
2017-11-25T13:43:21.443Z,1.00
2017-11-25T13:44:24.681Z,1.00